Forside
METAR-TAF:

METAR-TAF

Lufthavne :

Bangui, Centralafrikanske Republik

Breddekreds: 04-24N, længdekreds: 018-31E, højde: 365 m

Aktuelle vejr

Denne rapport blev lavet for 42 minutter siden, kl. 12:00 UTC
Vind 2 kt fra varierende retninger
Temperatur 34°C
Fugtighed 44%
Tryk 1009 hPa
Sigt 10 km eller mere
ingen skyer under 1500m og ingen cumulonimbus

METAR: FEFF 221200Z VRB02KT CAVOK 34/20 Q1009 NOSIG

Tid: 13:42 (12:42 UTC)

Vejrudsigter

Denne rapport blev lavet for 1 time og 42 minutter siden, kl. 11:00 UTC
Foreløbig gælder fra 22 på 12 UTC til 23 på 18 UTC
Vind 2 kt fra varierende retninger
Sigt 10 km eller mere
ingen skyer under 1500m og ingen cumulonimbus
ændring
fra 22 på 14 UTC til 22 på 16 UTC
Sigt: 3000 m
ændring
fra 22 på 20 UTC til 22 på 22 UTC
Sigt 10 km eller mere
ingen skyer under 1500m og ingen cumulonimbus
ændring
fra 23 på 02 UTC til 23 på 04 UTC
Sigt: 3000 m
dis

TAF: FEFF 221100Z 2212/2318 VRB02KT CAVOK BECMG 2214/2216 3000 HZFU BECMG 2220/2222 CAVOK BECMG 2302/2304 3000 BR

Vejrobservationer og prognoser fra mere end 4000 lufthavne (METAR og TAF).

De gule og røde prikker repræsenterer de meteorologiske stationer.

Flyt musen over at se navnet på stationen.

Så klik over at se vejr observationer og prognoser.

At skifte det kort: Klik på de grønne knapper med et sort kors for at zoome ind; på den grønne knap med en bindestreg for at zoome ud; eller på de grønne pile for tilstødende kort.


METAR-TAF: